CA54 weather

33 Strip
Tracy, California, United States

Public forecast

Using degrees Fahrenheit for public forecast. Weather courtesy of forecast.io.

METAR (pilot weather report)

Closest report is Stockton Metropolitan Airport, 14.1 nm (26.1 km) NNE. Retrieved 2019/06/19 21:55 UTC (18 minutes ago):

KSCK 192155Z 30010KT 10SM CLR 33/14 A2984 RMK AO2 SLP104 T03280144

TAF (pilot weather forecast)

Closest forecast is Stockton Metropolitan Airport, 14.1 nm (26.1 km) NNE. Retrieved 2019/06/19 18:42 UTC (4 hours ago):

TAF KSCK 191739Z 1918/2018 31010KT P6SM SKC